sensor_id;sensor_type;location;lat;lon;timestamp;temperature;humidity
25640;DHT22;13497;48.322;16.204;2023-08-01T00:00:31;20.10;99.90
25640;DHT22;13497;48.322;16.204;2023-08-01T00:02:57;19.90;99.90
25640;DHT22;13497;48.322;16.204;2023-08-01T00:05:23;19.80;99.90
25640;DHT22;13497;48.322;16.204;2023-08-01T00:07:48;19.80;99.90
25640;DHT22;13497;48.322;16.204;2023-08-01T00:10:14;19.80;99.90
25640;DHT22;13497;48.322;16.204;2023-08-01T00:12:41;19.80;99.90
25640;DHT22;13497;48.322;16.204;2023-08-01T00:15:08;19.70;99.90
25640;DHT22;13497;48.322;16.204;2023-08-01T00:17:34;19.60;99.90
25640;DHT22;13497;48.322;16.204;2023-08-01T00:20:01;19.60;99.90
25640;DHT22;13497;48.322;16.204;2023-08-01T00:22:26;19.50;99.90
25640;DHT22;13497;48.322;16.204;2023-08-01T00:24:52;19.50;99.90
25640;DHT22;13497;48.322;16.204;2023-08-01T00:27:17;19.40;99.90
25640;DHT22;13497;48.322;16.204;2023-08-01T00:29:43;19.40;99.90
25640;DHT22;13497;48.322;16.204;2023-08-01T00:32:09;19.40;99.90
25640;DHT22;13497;48.322;16.204;2023-08-01T00:34:34;19.40;99.90
25640;DHT22;13497;48.322;16.204;2023-08-01T00:37:00;19.30;99.90
25640;DHT22;13497;48.322;16.204;2023-08-01T00:39:26;19.40;99.90
25640;DHT22;13497;48.322;16.204;2023-08-01T00:41:51;19.40;99.90
25640;DHT22;13497;48.322;16.204;2023-08-01T00:44:17;19.40;99.90
25640;DHT22;13497;48.322;16.204;2023-08-01T00:46:42;19.30;99.90
25640;DHT22;13497;48.322;16.204;2023-08-01T00:49:08;19.20;99.90
25640;DHT22;13497;48.322;16.204;2023-08-01T00:51:34;19.10;99.90
25640;DHT22;13497;48.322;16.204;2023-08-01T00:54:00;19.10;99.90
25640;DHT22;13497;48.322;16.204;2023-08-01T00:56:26;19.20;99.90
25640;DHT22;13497;48.322;16.204;2023-08-01T00:58:52;19.10;99.90
25640;DHT22;13497;48.322;16.204;2023-08-01T01:01:18;19.10;99.90
25640;DHT22;13497;48.322;16.204;2023-08-01T01:03:44;19.10;99.90
25640;DHT22;13497;48.322;16.204;2023-08-01T01:08:42;19.10;99.90
25640;DHT22;13497;48.322;16.204;2023-08-01T01:11:08;19.10;99.90
25640;DHT22;13497;48.322;16.204;2023-08-01T01:13:34;19.10;99.90
25640;DHT22;13497;48.322;16.204;2023-08-01T01:15:59;19.20;99.90
25640;DHT22;13497;48.322;16.204;2023-08-01T01:18:25;19.20;99.90
25640;DHT22;13497;48.322;16.204;2023-08-01T01:20:51;19.40;99.90
25640;DHT22;13497;48.322;16.204;2023-08-01T01:23:17;19.40;99.90
25640;DHT22;13497;48.322;16.204;2023-08-01T01:25:43;19.40;99.90
25640;DHT22;13497;48.322;16.204;2023-08-01T01:28:09;19.30;99.90
25640;DHT22;13497;48.322;16.204;2023-08-01T01:30:35;19.20;99.90
25640;DHT22;13497;48.322;16.204;2023-08-01T01:33:02;19.20;99.90
25640;DHT22;13497;48.322;16.204;2023-08-01T01:35:29;19.30;99.90
25640;DHT22;13497;48.322;16.204;2023-08-01T01:37:55;19.30;99.90
25640;DHT22;13497;48.322;16.204;2023-08-01T01:40:20;19.30;99.90
25640;DHT22;13497;48.322;16.204;2023-08-01T01:42:46;19.30;99.90
25640;DHT22;13497;48.322;16.204;2023-08-01T01:45:13;19.30;99.90
25640;DHT22;13497;48.322;16.204;2023-08-01T01:47:39;19.40;99.90
25640;DHT22;13497;48.322;16.204;2023-08-01T01:50:05;19.50;99.90
25640;DHT22;13497;48.322;16.204;2023-08-01T01:52:31;19.50;99.90
25640;DHT22;13497;48.322;16.204;2023-08-01T01:54:58;19.50;99.90
25640;DHT22;13497;48.322;16.204;2023-08-01T01:57:24;19.60;99.90
25640;DHT22;13497;48.322;16.204;2023-08-01T01:59:49;19.60;99.90
25640;DHT22;13497;48.322;16.204;2023-08-01T02:02:15;19.70;99.90
25640;DHT22;13497;48.322;16.204;2023-08-01T02:04:40;19.80;99.90
25640;DHT22;13497;48.322;16.204;2023-08-01T02:07:06;19.70;99.90
25640;DHT22;13497;48.322;16.204;2023-08-01T02:09:32;19.70;99.90
25640;DHT22;13497;48.322;16.204;2023-08-01T02:11:57;19.70;99.90
25640;DHT22;13497;48.322;16.204;2023-08-01T02:14:23;19.70;99.90
25640;DHT22;13497;48.322;16.204;2023-08-01T02:16:49;19.70;99.90
25640;DHT22;13497;48.322;16.204;2023-08-01T02:19:14;19.70;99.90
25640;DHT22;13497;48.322;16.204;2023-08-01T02:21:40;19.70;99.90
25640;DHT22;13497;48.322;16.204;2023-08-01T02:24:05;19.70;99.90
25640;DHT22;13497;48.322;16.204;2023-08-01T02:26:31;19.70;99.90
25640;DHT22;13497;48.322;16.204;2023-08-01T02:28:57;19.70;99.90
25640;DHT22;13497;48.322;16.204;2023-08-01T02:31:22;19.80;99.90
25640;DHT22;13497;48.322;16.204;2023-08-01T02:33:48;19.80;99.90
25640;DHT22;13497;48.322;16.204;2023-08-01T02:36:13;19.70;99.90
25640;DHT22;13497;48.322;16.204;2023-08-01T02:38:39;19.60;99.90
25640;DHT22;13497;48.322;16.204;2023-08-01T02:41:05;19.50;99.90
25640;DHT22;13497;48.322;16.204;2023-08-01T02:43:30;19.50;99.90
25640;DHT22;13497;48.322;16.204;2023-08-01T02:45:56;19.50;99.90
25640;DHT22;13497;48.322;16.204;2023-08-01T02:48:22;19.50;99.90
25640;DHT22;13497;48.322;16.204;2023-08-01T02:50:47;19.50;99.90
25640;DHT22;13497;48.322;16.204;2023-08-01T02:53:13;19.50;99.90
25640;DHT22;13497;48.322;16.204;2023-08-01T02:55:39;19.60;99.90
25640;DHT22;13497;48.322;16.204;2023-08-01T02:58:04;19.50;99.90
25640;DHT22;13497;48.322;16.204;2023-08-01T03:00:30;19.60;99.90
25640;DHT22;13497;48.322;16.204;2023-08-01T03:02:57;19.60;99.90
25640;DHT22;13497;48.322;16.204;2023-08-01T03:05:23;19.60;99.90
25640;DHT22;13497;48.322;16.204;2023-08-01T03:07:48;19.50;99.90
25640;DHT22;13497;48.322;16.204;2023-08-01T03:10:14;19.60;99.90
25640;DHT22;13497;48.322;16.204;2023-08-01T03:12:39;19.60;99.90
25640;DHT22;13497;48.322;16.204;2023-08-01T03:15:05;19.60;99.90
25640;DHT22;13497;48.322;16.204;2023-08-01T03:17:34;19.50;99.90
25640;DHT22;13497;48.322;16.204;2023-08-01T03:19:59;19.40;99.90
25640;DHT22;13497;48.322;16.204;2023-08-01T03:22:25;19.30;99.90
25640;DHT22;13497;48.322;16.204;2023-08-01T03:24:51;19.40;99.90
25640;DHT22;13497;48.322;16.204;2023-08-01T03:27:16;19.40;99.90
25640;DHT22;13497;48.322;16.204;2023-08-01T03:29:42;19.50;99.90
25640;DHT22;13497;48.322;16.204;2023-08-01T03:32:08;19.50;99.90
25640;DHT22;13497;48.322;16.204;2023-08-01T03:34:34;19.50;99.90
25640;DHT22;13497;48.322;16.204;2023-08-01T03:37:00;19.60;99.90
25640;DHT22;13497;48.322;16.204;2023-08-01T03:39:25;19.70;99.90
25640;DHT22;13497;48.322;16.204;2023-08-01T03:41:51;19.70;99.90
25640;DHT22;13497;48.322;16.204;2023-08-01T03:44:17;19.70;99.90
25640;DHT22;13497;48.322;16.204;2023-08-01T03:46:43;19.70;99.90
25640;DHT22;13497;48.322;16.204;2023-08-01T03:49:09;19.70;99.90
25640;DHT22;13497;48.322;16.204;2023-08-01T03:51:35;19.60;99.90
25640;DHT22;13497;48.322;16.204;2023-08-01T03:54:00;19.70;99.90
25640;DHT22;13497;48.322;16.204;2023-08-01T03:56:26;19.70;99.90
25640;DHT22;13497;48.322;16.204;2023-08-01T03:58:53;19.70;99.90
25640;DHT22;13497;48.322;16.204;2023-08-01T04:01:18;19.60;99.90
25640;DHT22;13497;48.322;16.204;2023-08-01T04:03:44;19.60;99.90
25640;DHT22;13497;48.322;16.204;2023-08-01T04:06:10;19.60;99.90
25640;DHT22;13497;48.322;16.204;2023-08-01T04:08:40;19.60;99.90
25640;DHT22;13497;48.322;16.204;2023-08-01T04:11:06;19.60;99.90
25640;DHT22;13497;48.322;16.204;2023-08-01T04:13:32;19.50;99.90
25640;DHT22;13497;48.322;16.204;2023-08-01T04:15:57;19.50;99.90
25640;DHT22;13497;48.322;16.204;2023-08-01T04:18:23;19.60;99.90
25640;DHT22;13497;48.322;16.204;2023-08-01T04:20:49;19.60;99.90
25640;DHT22;13497;48.322;16.204;2023-08-01T04:23:14;19.50;99.90
25640;DHT22;13497;48.322;16.204;2023-08-01T04:25:40;19.50;99.90
25640;DHT22;13497;48.322;16.204;2023-08-01T04:28:06;19.60;99.90
25640;DHT22;13497;48.322;16.204;2023-08-01T04:30:32;19.60;99.90
25640;DHT22;13497;48.322;16.204;2023-08-01T04:32:58;19.70;99.90
25640;DHT22;13497;48.322;16.204;2023-08-01T04:35:25;19.80;99.90
25640;DHT22;13497;48.322;16.204;2023-08-01T04:37:51;19.90;99.90
25640;DHT22;13497;48.322;16.204;2023-08-01T04:40:16;19.90;99.90
25640;DHT22;13497;48.322;16.204;2023-08-01T04:42:42;19.90;99.90
25640;DHT22;13497;48.322;16.204;2023-08-01T04:45:08;20.00;99.90
25640;DHT22;13497;48.322;16.204;2023-08-01T04:47:33;20.00;99.90
25640;DHT22;13497;48.322;16.204;2023-08-01T04:50:00;20.00;99.90
25640;DHT22;13497;48.322;16.204;2023-08-01T04:52:26;20.10;99.90
25640;DHT22;13497;48.322;16.204;2023-08-01T04:54:51;20.10;99.90
25640;DHT22;13497;48.322;16.204;2023-08-01T04:57:17;20.00;99.90
25640;DHT22;13497;48.322;16.204;2023-08-01T04:59:43;20.00;99.90
25640;DHT22;13497;48.322;16.204;2023-08-01T05:02:08;20.00;99.90
25640;DHT22;13497;48.322;16.204;2023-08-01T05:04:34;20.10;99.90
25640;DHT22;13497;48.322;16.204;2023-08-01T05:06:59;20.30;99.90
25640;DHT22;13497;48.322;16.204;2023-08-01T05:09:25;20.50;99.90
25640;DHT22;13497;48.322;16.204;2023-08-01T05:11:51;20.60;99.90
25640;DHT22;13497;48.322;16.204;2023-08-01T05:14:17;20.70;99.90
25640;DHT22;13497;48.322;16.204;2023-08-01T05:16:42;20.80;99.90
25640;DHT22;13497;48.322;16.204;2023-08-01T05:19:08;20.90;99.90
25640;DHT22;13497;48.322;16.204;2023-08-01T05:21:34;21.00;99.90
25640;DHT22;13497;48.322;16.204;2023-08-01T05:23:59;21.00;99.90
25640;DHT22;13497;48.322;16.204;2023-08-01T05:26:25;21.00;99.90
25640;DHT22;13497;48.322;16.204;2023-08-01T05:28:50;21.10;99.90
25640;DHT22;13497;48.322;16.204;2023-08-01T05:31:16;21.20;99.90
25640;DHT22;13497;48.322;16.204;2023-08-01T05:33:42;21.20;99.90
25640;DHT22;13497;48.322;16.204;2023-08-01T05:36:07;21.30;99.90
25640;DHT22;13497;48.322;16.204;2023-08-01T05:38:33;21.40;99.90
25640;DHT22;13497;48.322;16.204;2023-08-01T05:40:58;21.40;99.90
25640;DHT22;13497;48.322;16.204;2023-08-01T05:43:24;21.40;99.90
25640;DHT22;13497;48.322;16.204;2023-08-01T05:45:50;21.40;99.90
25640;DHT22;13497;48.322;16.204;2023-08-01T05:48:15;21.40;99.90
25640;DHT22;13497;48.322;16.204;2023-08-01T05:50:41;21.60;99.90
25640;DHT22;13497;48.322;16.204;2023-08-01T05:53:06;21.60;99.90
25640;DHT22;13497;48.322;16.204;2023-08-01T05:55:33;21.80;99.90
25640;DHT22;13497;48.322;16.204;2023-08-01T05:57:59;21.80;99.90
25640;DHT22;13497;48.322;16.204;2023-08-01T06:00:24;21.90;99.90
25640;DHT22;13497;48.322;16.204;2023-08-01T06:02:50;22.10;99.90
25640;DHT22;13497;48.322;16.204;2023-08-01T06:05:16;22.40;99.90
25640;DHT22;13497;48.322;16.204;2023-08-01T06:07:42;22.50;99.90
25640;DHT22;13497;48.322;16.204;2023-08-01T06:10:08;22.60;99.90
25640;DHT22;13497;48.322;16.204;2023-08-01T06:12:33;22.60;99.90
25640;DHT22;13497;48.322;16.204;2023-08-01T06:14:59;22.50;99.90
25640;DHT22;13497;48.322;16.204;2023-08-01T06:17:24;22.50;99.90
25640;DHT22;13497;48.322;16.204;2023-08-01T06:19:50;22.60;99.90
25640;DHT22;13497;48.322;16.204;2023-08-01T06:22:16;22.60;99.90
25640;DHT22;13497;48.322;16.204;2023-08-01T06:24:42;22.50;99.90
25640;DHT22;13497;48.322;16.204;2023-08-01T06:27:08;22.40;99.90
25640;DHT22;13497;48.322;16.204;2023-08-01T06:29:33;22.20;99.90
25640;DHT22;13497;48.322;16.204;2023-08-01T06:31:59;22.20;99.90
25640;DHT22;13497;48.322;16.204;2023-08-01T06:34:25;22.10;99.90
25640;DHT22;13497;48.322;16.204;2023-08-01T06:36:50;22.00;99.90
25640;DHT22;13497;48.322;16.204;2023-08-01T06:39:16;22.00;99.90
25640;DHT22;13497;48.322;16.204;2023-08-01T06:41:42;22.00;99.90
25640;DHT22;13497;48.322;16.204;2023-08-01T06:44:07;22.00;99.90
25640;DHT22;13497;48.322;16.204;2023-08-01T06:46:33;22.10;99.90
25640;DHT22;13497;48.322;16.204;2023-08-01T06:48:58;22.10;99.90
25640;DHT22;13497;48.322;16.204;2023-08-01T06:51:24;22.10;99.90
25640;DHT22;13497;48.322;16.204;2023-08-01T06:53:50;22.00;99.90
25640;DHT22;13497;48.322;16.204;2023-08-01T06:56:15;22.00;99.90
25640;DHT22;13497;48.322;16.204;2023-08-01T06:58:41;22.10;99.90
25640;DHT22;13497;48.322;16.204;2023-08-01T07:01:06;22.10;99.90
25640;DHT22;13497;48.322;16.204;2023-08-01T07:03:32;22.10;99.90
25640;DHT22;13497;48.322;16.204;2023-08-01T07:05:58;22.20;99.90
25640;DHT22;13497;48.322;16.204;2023-08-01T07:08:23;22.30;99.90
25640;DHT22;13497;48.322;16.204;2023-08-01T07:10:49;22.40;99.90
25640;DHT22;13497;48.322;16.204;2023-08-01T07:13:15;22.40;99.90
25640;DHT22;13497;48.322;16.204;2023-08-01T07:15:41;22.30;99.90
25640;DHT22;13497;48.322;16.204;2023-08-01T07:18:07;22.20;99.90
25640;DHT22;13497;48.322;16.204;2023-08-01T07:20:33;22.20;99.90
25640;DHT22;13497;48.322;16.204;2023-08-01T07:22:58;22.10;99.90
25640;DHT22;13497;48.322;16.204;2023-08-01T07:25:24;22.10;99.90
25640;DHT22;13497;48.322;16.204;2023-08-01T07:27:50;22.00;99.90
25640;DHT22;13497;48.322;16.204;2023-08-01T07:30:16;22.00;99.90
25640;DHT22;13497;48.322;16.204;2023-08-01T07:32:42;22.10;99.90
25640;DHT22;13497;48.322;16.204;2023-08-01T07:35:08;22.10;99.90
25640;DHT22;13497;48.322;16.204;2023-08-01T07:37:34;22.00;99.90
25640;DHT22;13497;48.322;16.204;2023-08-01T07:40:00;21.80;99.90
25640;DHT22;13497;48.322;16.204;2023-08-01T07:42:26;21.80;99.90
25640;DHT22;13497;48.322;16.204;2023-08-01T07:44:51;21.70;99.90
25640;DHT22;13497;48.322;16.204;2023-08-01T07:47:17;21.70;99.90
25640;DHT22;13497;48.322;16.204;2023-08-01T07:49:42;21.60;99.90
25640;DHT22;13497;48.322;16.204;2023-08-01T07:52:08;21.50;99.90
25640;DHT22;13497;48.322;16.204;2023-08-01T07:54:34;21.60;99.90
25640;DHT22;13497;48.322;16.204;2023-08-01T07:56:59;21.70;99.90
25640;DHT22;13497;48.322;16.204;2023-08-01T07:59:25;21.80;99.90
25640;DHT22;13497;48.322;16.204;2023-08-01T08:01:51;21.70;99.90
25640;DHT22;13497;48.322;16.204;2023-08-01T08:04:18;21.70;99.90
25640;DHT22;13497;48.322;16.204;2023-08-01T08:06:44;21.70;99.90
25640;DHT22;13497;48.322;16.204;2023-08-01T08:09:09;21.70;99.90
25640;DHT22;13497;48.322;16.204;2023-08-01T08:11:35;21.70;99.90
25640;DHT22;13497;48.322;16.204;2023-08-01T08:14:00;21.60;99.90
25640;DHT22;13497;48.322;16.204;2023-08-01T08:16:26;21.60;99.90
25640;DHT22;13497;48.322;16.204;2023-08-01T08:18:52;21.50;99.90
25640;DHT22;13497;48.322;16.204;2023-08-01T08:21:17;21.60;99.90
25640;DHT22;13497;48.322;16.204;2023-08-01T08:23:43;21.70;99.90
25640;DHT22;13497;48.322;16.204;2023-08-01T08:26:09;21.80;99.90
25640;DHT22;13497;48.322;16.204;2023-08-01T08:28:34;21.80;99.90
25640;DHT22;13497;48.322;16.204;2023-08-01T08:31:01;21.80;99.90
25640;DHT22;13497;48.322;16.204;2023-08-01T08:33:28;21.70;99.90
25640;DHT22;13497;48.322;16.204;2023-08-01T08:35:54;21.80;99.90
25640;DHT22;13497;48.322;16.204;2023-08-01T08:38:20;21.70;99.90
25640;DHT22;13497;48.322;16.204;2023-08-01T08:41:07;21.70;99.90
25640;DHT22;13497;48.322;16.204;2023-08-01T08:43:33;21.80;99.90
25640;DHT22;13497;48.322;16.204;2023-08-01T08:46:00;21.80;99.90
25640;DHT22;13497;48.322;16.204;2023-08-01T08:48:26;21.90;99.90
25640;DHT22;13497;48.322;16.204;2023-08-01T08:50:54;21.80;99.90
25640;DHT22;13497;48.322;16.204;2023-08-01T08:53:22;21.80;99.90
25640;DHT22;13497;48.322;16.204;2023-08-01T08:55:48;21.70;99.90
25640;DHT22;13497;48.322;16.204;2023-08-01T08:58:16;21.60;99.90
25640;DHT22;13497;48.322;16.204;2023-08-01T09:00:42;21.60;99.90
25640;DHT22;13497;48.322;16.204;2023-08-01T09:03:08;21.60;99.90
25640;DHT22;13497;48.322;16.204;2023-08-01T09:05:44;21.60;99.90
25640;DHT22;13497;48.322;16.204;2023-08-01T09:08:17;21.70;99.90
25640;DHT22;13497;48.322;16.204;2023-08-01T09:10:43;21.70;99.90
25640;DHT22;13497;48.322;16.204;2023-08-01T09:13:09;21.80;99.90
25640;DHT22;13497;48.322;16.204;2023-08-01T09:15:35;21.80;99.90
25640;DHT22;13497;48.322;16.204;2023-08-01T09:18:06;21.80;99.90
25640;DHT22;13497;48.322;16.204;2023-08-01T09:20:47;21.90;99.90
25640;DHT22;13497;48.322;16.204;2023-08-01T09:23:14;22.00;99.90
25640;DHT22;13497;48.322;16.204;2023-08-01T09:25:40;22.00;99.90
25640;DHT22;13497;48.322;16.204;2023-08-01T09:28:20;22.10;99.90
25640;DHT22;13497;48.322;16.204;2023-08-01T09:30:49;22.20;99.90
25640;DHT22;13497;48.322;16.204;2023-08-01T09:33:16;22.30;99.90
25640;DHT22;13497;48.322;16.204;2023-08-01T09:35:42;22.20;99.90
25640;DHT22;13497;48.322;16.204;2023-08-01T09:38:10;22.20;99.90
25640;DHT22;13497;48.322;16.204;2023-08-01T09:40:37;22.20;99.90
25640;DHT22;13497;48.322;16.204;2023-08-01T09:43:03;22.20;99.90
25640;DHT22;13497;48.322;16.204;2023-08-01T09:45:29;22.10;99.90
25640;DHT22;13497;48.322;16.204;2023-08-01T09:47:54;22.00;99.90
25640;DHT22;13497;48.322;16.204;2023-08-01T09:50:22;22.00;99.90
25640;DHT22;13497;48.322;16.204;2023-08-01T09:52:48;22.10;99.90
25640;DHT22;13497;48.322;16.204;2023-08-01T09:55:25;22.10;99.90
25640;DHT22;13497;48.322;16.204;2023-08-01T09:57:53;22.10;99.90
25640;DHT22;13497;48.322;16.204;2023-08-01T10:00:22;22.00;99.90
25640;DHT22;13497;48.322;16.204;2023-08-01T10:02:48;21.90;99.90
25640;DHT22;13497;48.322;16.204;2023-08-01T10:05:16;21.80;99.90
25640;DHT22;13497;48.322;16.204;2023-08-01T10:07:43;21.70;99.90
25640;DHT22;13497;48.322;16.204;2023-08-01T10:10:10;21.70;99.90
25640;DHT22;13497;48.322;16.204;2023-08-01T10:12:37;21.70;99.90
25640;DHT22;13497;48.322;16.204;2023-08-01T10:15:04;21.70;99.90
25640;DHT22;13497;48.322;16.204;2023-08-01T10:17:30;21.50;99.90
25640;DHT22;13497;48.322;16.204;2023-08-01T10:19:56;21.50;99.90
25640;DHT22;13497;48.322;16.204;2023-08-01T10:22:24;21.40;99.90
25640;DHT22;13497;48.322;16.204;2023-08-01T10:24:51;21.30;99.90
25640;DHT22;13497;48.322;16.204;2023-08-01T10:27:21;21.30;99.90
25640;DHT22;13497;48.322;16.204;2023-08-01T10:30:07;21.30;99.90
25640;DHT22;13497;48.322;16.204;2023-08-01T10:32:38;21.30;99.90
25640;DHT22;13497;48.322;16.204;2023-08-01T10:35:04;21.30;99.90
25640;DHT22;13497;48.322;16.204;2023-08-01T10:37:41;21.20;99.90
25640;DHT22;13497;48.322;16.204;2023-08-01T10:40:07;21.10;99.90
25640;DHT22;13497;48.322;16.204;2023-08-01T10:42:44;21.00;99.90
25640;DHT22;13497;48.322;16.204;2023-08-01T10:45:25;21.00;99.90
25640;DHT22;13497;48.322;16.204;2023-08-01T10:47:52;20.80;99.90
25640;DHT22;13497;48.322;16.204;2023-08-01T10:50:18;20.80;99.90
25640;DHT22;13497;48.322;16.204;2023-08-01T10:52:45;20.80;99.90
25640;DHT22;13497;48.322;16.204;2023-08-01T10:55:11;20.80;99.90
25640;DHT22;13497;48.322;16.204;2023-08-01T10:57:39;20.90;99.90
25640;DHT22;13497;48.322;16.204;2023-08-01T11:00:15;20.80;99.90
25640;DHT22;13497;48.322;16.204;2023-08-01T11:02:41;20.80;99.90
25640;DHT22;13497;48.322;16.204;2023-08-01T11:05:07;20.80;99.90
25640;DHT22;13497;48.322;16.204;2023-08-01T11:07:34;20.80;99.90
25640;DHT22;13497;48.322;16.204;2023-08-01T11:10:13;20.70;99.90
25640;DHT22;13497;48.322;16.204;2023-08-01T11:12:41;20.40;99.90
25640;DHT22;13497;48.322;16.204;2023-08-01T11:15:08;20.50;99.90
25640;DHT22;13497;48.322;16.204;2023-08-01T11:17:51;20.50;99.90
25640;DHT22;13497;48.322;16.204;2023-08-01T11:20:19;20.60;99.90
25640;DHT22;13497;48.322;16.204;2023-08-01T11:22:55;20.60;99.90
25640;DHT22;13497;48.322;16.204;2023-08-01T11:25:39;20.70;99.90
25640;DHT22;13497;48.322;16.204;2023-08-01T11:28:08;20.70;99.90
25640;DHT22;13497;48.322;16.204;2023-08-01T11:30:34;20.70;99.90
25640;DHT22;13497;48.322;16.204;2023-08-01T11:33:00;20.70;99.90
25640;DHT22;13497;48.322;16.204;2023-08-01T11:35:27;20.60;99.90
25640;DHT22;13497;48.322;16.204;2023-08-01T11:37:53;20.60;99.90
25640;DHT22;13497;48.322;16.204;2023-08-01T11:40:19;20.50;99.90
25640;DHT22;13497;48.322;16.204;2023-08-01T11:42:49;20.60;99.90
25640;DHT22;13497;48.322;16.204;2023-08-01T11:45:20;20.60;99.90
25640;DHT22;13497;48.322;16.204;2023-08-01T11:47:47;20.60;99.90
25640;DHT22;13497;48.322;16.204;2023-08-01T11:50:13;20.60;99.90
25640;DHT22;13497;48.322;16.204;2023-08-01T11:52:39;20.60;99.90
25640;DHT22;13497;48.322;16.204;2023-08-01T11:55:05;20.50;99.90
25640;DHT22;13497;48.322;16.204;2023-08-01T11:57:31;20.50;99.90
25640;DHT22;13497;48.322;16.204;2023-08-01T11:59:57;20.60;99.90
25640;DHT22;13497;48.322;16.204;2023-08-01T12:02:27;20.50;99.90
25640;DHT22;13497;48.322;16.204;2023-08-01T12:04:53;20.50;99.90
25640;DHT22;13497;48.322;16.204;2023-08-01T12:07:19;20.40;99.90
25640;DHT22;13497;48.322;16.204;2023-08-01T12:09:58;20.40;99.90
25640;DHT22;13497;48.322;16.204;2023-08-01T12:12:26;20.40;99.90
25640;DHT22;13497;48.322;16.204;2023-08-01T12:14:52;20.30;99.90
25640;DHT22;13497;48.322;16.204;2023-08-01T12:17:19;20.30;99.90
25640;DHT22;13497;48.322;16.204;2023-08-01T12:19:45;20.20;99.90
25640;DHT22;13497;48.322;16.204;2023-08-01T12:22:11;20.20;99.90
25640;DHT22;13497;48.322;16.204;2023-08-01T12:24:37;20.20;99.90
25640;DHT22;13497;48.322;16.204;2023-08-01T12:27:07;20.30;99.90
25640;DHT22;13497;48.322;16.204;2023-08-01T12:29:33;20.50;99.90
25640;DHT22;13497;48.322;16.204;2023-08-01T12:31:59;20.60;99.90
25640;DHT22;13497;48.322;16.204;2023-08-01T12:34:24;20.50;99.90
25640;DHT22;13497;48.322;16.204;2023-08-01T12:36:50;20.20;99.90
25640;DHT22;13497;48.322;16.204;2023-08-01T12:39:16;19.90;99.90
25640;DHT22;13497;48.322;16.204;2023-08-01T12:41:41;19.90;99.90
25640;DHT22;13497;48.322;16.204;2023-08-01T12:44:07;20.00;99.90
25640;DHT22;13497;48.322;16.204;2023-08-01T12:46:32;20.00;99.90
25640;DHT22;13497;48.322;16.204;2023-08-01T12:48:58;20.00;99.90
25640;DHT22;13497;48.322;16.204;2023-08-01T12:51:24;20.00;99.90
25640;DHT22;13497;48.322;16.204;2023-08-01T12:53:50;20.00;99.90
25640;DHT22;13497;48.322;16.204;2023-08-01T12:56:15;20.10;99.90
25640;DHT22;13497;48.322;16.204;2023-08-01T12:58:41;20.10;99.90
25640;DHT22;13497;48.322;16.204;2023-08-01T13:01:07;20.00;99.90
25640;DHT22;13497;48.322;16.204;2023-08-01T13:03:33;19.90;99.90
25640;DHT22;13497;48.322;16.204;2023-08-01T13:05:59;19.90;99.90
25640;DHT22;13497;48.322;16.204;2023-08-01T13:08:25;19.80;99.90
25640;DHT22;13497;48.322;16.204;2023-08-01T13:10:51;19.80;99.90
25640;DHT22;13497;48.322;16.204;2023-08-01T13:13:17;19.80;99.90
25640;DHT22;13497;48.322;16.204;2023-08-01T13:15:43;19.70;99.90
25640;DHT22;13497;48.322;16.204;2023-08-01T13:18:10;19.60;99.90
25640;DHT22;13497;48.322;16.204;2023-08-01T13:20:35;19.50;99.90
25640;DHT22;13497;48.322;16.204;2023-08-01T13:23:02;19.40;99.90
25640;DHT22;13497;48.322;16.204;2023-08-01T13:25:28;19.20;99.90
25640;DHT22;13497;48.322;16.204;2023-08-01T13:27:54;19.20;99.90
25640;DHT22;13497;48.322;16.204;2023-08-01T13:30:20;19.20;99.90
25640;DHT22;13497;48.322;16.204;2023-08-01T13:32:46;19.30;99.90
25640;DHT22;13497;48.322;16.204;2023-08-01T13:35:12;19.40;99.90
25640;DHT22;13497;48.322;16.204;2023-08-01T13:37:38;19.40;99.90
25640;DHT22;13497;48.322;16.204;2023-08-01T13:40:04;19.40;99.90
25640;DHT22;13497;48.322;16.204;2023-08-01T13:42:30;19.30;99.90
25640;DHT22;13497;48.322;16.204;2023-08-01T13:44:56;19.40;99.90
25640;DHT22;13497;48.322;16.204;2023-08-01T13:47:22;19.40;99.90
25640;DHT22;13497;48.322;16.204;2023-08-01T13:49:48;19.40;99.90
25640;DHT22;13497;48.322;16.204;2023-08-01T13:52:14;19.40;99.90
25640;DHT22;13497;48.322;16.204;2023-08-01T13:54:39;19.40;99.90
25640;DHT22;13497;48.322;16.204;2023-08-01T13:57:06;19.40;99.90
25640;DHT22;13497;48.322;16.204;2023-08-01T13:59:31;19.20;99.90
25640;DHT22;13497;48.322;16.204;2023-08-01T14:01:57;19.20;99.90
25640;DHT22;13497;48.322;16.204;2023-08-01T14:04:23;19.10;99.90
25640;DHT22;13497;48.322;16.204;2023-08-01T14:06:48;19.10;99.90
25640;DHT22;13497;48.322;16.204;2023-08-01T14:09:14;19.10;99.90
25640;DHT22;13497;48.322;16.204;2023-08-01T14:11:40;19.20;99.90
25640;DHT22;13497;48.322;16.204;2023-08-01T14:14:06;19.10;99.90
25640;DHT22;13497;48.322;16.204;2023-08-01T14:16:31;19.10;99.90
25640;DHT22;13497;48.322;16.204;2023-08-01T14:19:00;19.20;99.90
25640;DHT22;13497;48.322;16.204;2023-08-01T14:21:26;19.20;99.90
25640;DHT22;13497;48.322;16.204;2023-08-01T14:23:51;19.10;99.90
25640;DHT22;13497;48.322;16.204;2023-08-01T14:26:17;19.10;99.90
25640;DHT22;13497;48.322;16.204;2023-08-01T14:28:43;19.10;99.90
25640;DHT22;13497;48.322;16.204;2023-08-01T14:31:09;19.10;99.90
25640;DHT22;13497;48.322;16.204;2023-08-01T14:33:34;19.10;99.90
25640;DHT22;13497;48.322;16.204;2023-08-01T14:36:00;19.00;99.90
25640;DHT22;13497;48.322;16.204;2023-08-01T14:38:26;19.00;99.90
25640;DHT22;13497;48.322;16.204;2023-08-01T14:40:54;19.00;99.90
25640;DHT22;13497;48.322;16.204;2023-08-01T14:43:20;18.90;99.90
25640;DHT22;13497;48.322;16.204;2023-08-01T14:45:46;18.90;99.90
25640;DHT22;13497;48.322;16.204;2023-08-01T14:48:12;18.80;99.90
25640;DHT22;13497;48.322;16.204;2023-08-01T14:50:38;18.80;99.90
25640;DHT22;13497;48.322;16.204;2023-08-01T14:53:04;18.70;99.90
25640;DHT22;13497;48.322;16.204;2023-08-01T14:55:32;18.60;99.90
25640;DHT22;13497;48.322;16.204;2023-08-01T14:57:58;18.60;99.90
25640;DHT22;13497;48.322;16.204;2023-08-01T15:00:24;18.60;99.90
25640;DHT22;13497;48.322;16.204;2023-08-01T15:02:50;18.50;99.90
25640;DHT22;13497;48.322;16.204;2023-08-01T15:05:15;18.60;99.90
25640;DHT22;13497;48.322;16.204;2023-08-01T15:07:41;18.50;99.90
25640;DHT22;13497;48.322;16.204;2023-08-01T15:10:07;18.60;99.90
25640;DHT22;13497;48.322;16.204;2023-08-01T15:12:33;18.60;99.90